Time;durP1;ratioP1;P1;durP2;ratioP2;P2;SDS_P1;SDS_P2;PMS_P1;PMS_P2;Temp;Humidity;BMP_temperature;BMP_pressure;BME280_temperature;BME280_humidity;BME280_pressure;Samples;Min_cycle;Max_cycle;Signal;HPM_P1;HPM_P2
2021/07/31 00:00:48;;;;;;;5.53;4.18;;;20.10;75.40;;;19.41;71.92;95597.44;4963202;28;20098;-68
2021/07/31 00:03:13;;;;;;;4.47;4.07;;;20.00;75.30;;;19.40;70.37;95595.84;4962200;28;20067;-66
2021/07/31 00:05:39;;;;;;;5.25;4.25;;;20.10;75.30;;;19.35;70.69;95585.16;4932939;28;20063;-66
2021/07/31 00:08:05;;;;;;;5.95;3.95;;;20.00;75.30;;;19.31;71.16;95594.72;4917670;28;20031;-66
2021/07/31 00:10:36;;;;;;;4.13;3.72;;;20.00;75.60;;;19.31;71.26;95586.72;4951295;28;20055;-65
2021/07/31 00:13:01;;;;;;;4.10;3.60;;;20.00;75.50;;;19.29;70.38;95599.50;4967224;28;20090;-65
2021/07/31 00:15:27;;;;;;;6.88;3.72;;;20.00;75.20;;;19.28;71.31;95597.91;4961039;28;20031;-66
2021/07/31 00:17:53;;;;;;;4.95;4.25;;;20.10;75.50;;;19.26;71.41;95595.50;4959376;28;20102;-66
2021/07/31 00:20:18;;;;;;;5.60;3.83;;;20.00;75.70;;;19.25;72.46;95598.41;4954719;28;20043;-66
2021/07/31 00:22:44;;;;;;;4.72;4.07;;;20.00;75.70;;;19.25;70.88;95587.75;4967614;28;20454;-65
2021/07/31 00:25:10;;;;;;;5.32;3.83;;;20.00;75.60;;;19.24;72.12;95591.47;4958260;28;20454;-66
2021/07/31 00:27:36;;;;;;;3.90;3.50;;;20.00;75.40;;;19.24;70.80;95591.47;4962035;28;20039;-66
2021/07/31 00:30:02;;;;;;;4.35;3.40;;;19.90;75.20;;;19.19;71.65;95594.09;4959756;28;20031;-65
2021/07/31 00:32:27;;;;;;;4.75;4.05;;;19.90;75.90;;;19.16;72.54;95594.59;4963300;28;20126;-65
2021/07/31 00:34:53;;;;;;;6.35;3.80;;;19.80;76.50;;;19.10;72.32;95599.09;4971286;28;20035;-65
2021/07/31 00:37:19;;;;;;;6.20;3.97;;;19.80;76.60;;;19.08;71.71;95589.75;4958158;28;20042;-65
2021/07/31 00:39:45;;;;;;;4.97;4.00;;;19.80;76.70;;;19.05;73.45;95592.94;4970438;28;20126;-65
2021/07/31 00:42:11;;;;;;;5.22;4.22;;;19.70;76.70;;;18.99;72.44;95581.41;4954951;28;20390;-65
2021/07/31 00:44:36;;;;;;;4.53;3.53;;;19.60;77.00;;;18.93;73.09;95588.56;4945611;28;20057;-65
2021/07/31 00:47:02;;;;;;;4.45;3.42;;;19.60;76.40;;;18.90;72.63;95582.94;4952969;28;20071;-65
2021/07/31 00:49:29;;;;;;;7.55;4.07;;;19.60;76.20;;;18.90;72.45;95582.94;4927192;28;20039;-65
2021/07/31 00:51:55;;;;;;;4.90;3.70;;;19.60;76.20;;;18.89;72.40;95595.44;4931879;28;20039;-65
2021/07/31 00:54:21;;;;;;;4.65;3.28;;;19.70;76.00;;;18.90;72.63;95580.25;4914052;29;20095;-65
2021/07/31 00:56:46;;;;;;;5.55;3.38;;;19.70;75.60;;;18.91;72.65;95571.22;4940329;28;20101;-65
2021/07/31 00:59:12;;;;;;;4.90;3.85;;;19.70;75.50;;;18.93;72.84;95571.75;4945584;28;20035;-65
2021/07/31 01:01:40;;;;;;;4.88;3.50;;;19.80;75.10;;;18.92;71.82;95576.28;4959450;28;20098;-65
2021/07/31 01:04:05;;;;;;;4.43;3.28;;;19.70;75.20;;;18.92;72.70;95580.81;4938960;28;20483;-65
2021/07/31 01:06:31;;;;;;;4.43;3.70;;;19.70;75.10;;;18.90;71.16;95574.94;4964663;28;20117;-65
2021/07/31 01:08:57;;;;;;;4.95;3.75;;;19.70;75.30;;;18.84;71.99;95579.44;4945543;28;20047;-65
2021/07/31 01:11:23;;;;;;;6.28;3.90;;;19.70;75.30;;;18.86;72.08;95579.97;4945402;28;20035;-65
2021/07/31 01:13:50;;;;;;;4.88;3.53;;;19.70;75.30;;;18.87;72.75;95586.91;4967879;28;20042;-65
2021/07/31 01:16:15;;;;;;;4.18;3.42;;;19.70;75.20;;;18.87;71.88;95583.44;4932906;29;20519;-66
2021/07/31 01:18:41;;;;;;;6.30;3.70;;;19.70;75.20;;;18.87;71.46;95580.78;4920530;28;20106;-65
2021/07/31 01:21:07;;;;;;;5.53;3.63;;;19.70;74.70;;;18.84;71.38;95584.75;4932455;28;20040;-66
2021/07/31 01:23:32;;;;;;;4.40;3.70;;;19.60;75.10;;;18.85;71.55;95589.03;4951341;28;20129;-66
2021/07/31 01:25:58;;;;;;;4.65;3.85;;;19.60;75.10;;;18.85;72.18;95593.56;4955941;28;20121;-65
2021/07/31 01:28:24;;;;;;;4.65;3.80;;;19.60;75.10;;;18.80;71.58;95586.31;4963368;28;20047;-65
2021/07/31 01:30:50;;;;;;;5.28;3.55;;;19.50;75.40;;;18.79;72.31;95587.38;4951527;28;20094;-65
2021/07/31 01:33:16;;;;;;;5.63;3.60;;;19.60;75.60;;;18.80;72.95;95586.31;4944405;28;20035;-65
2021/07/31 01:35:42;;;;;;;5.68;3.75;;;19.70;75.60;;;18.80;72.25;95594.31;4939965;28;20117;-65
2021/07/31 01:38:07;;;;;;;6.80;3.63;;;19.60;75.30;;;18.79;72.46;95583.91;4964816;28;20114;-65
2021/07/31 01:40:33;;;;;;;4.70;3.67;;;19.60;75.30;;;18.77;72.34;95594.78;4962554;28;20053;-65
2021/07/31 01:42:59;;;;;;;4.72;3.60;;;19.60;75.30;;;18.76;71.87;95593.19;4954354;28;20526;-65
2021/07/31 01:45:25;;;;;;;6.28;3.40;;;19.60;75.20;;;18.76;71.79;95595.03;4910136;28;20047;-65
2021/07/31 01:47:51;;;;;;;4.22;3.33;;;19.60;75.20;;;18.73;72.33;95596.34;4927318;28;20133;-65
2021/07/31 01:50:17;;;;;;;5.32;3.92;;;19.60;75.30;;;18.69;73.04;95595.25;4968078;28;20080;-65
2021/07/31 01:52:46;;;;;;;5.05;3.72;;;19.40;75.40;;;18.67;73.12;95592.03;4951630;28;20043;-65
2021/07/31 01:55:12;;;;;;;4.30;3.60;;;19.50;75.50;;;18.69;72.65;95600.59;4950943;28;20031;-65
2021/07/31 01:57:38;;;;;;;4.60;3.35;;;19.50;75.50;;;18.69;72.89;95605.91;4964313;28;20125;-65
2021/07/31 02:00:04;;;;;;;6.18;4.03;;;19.60;75.20;;;18.71;72.71;95600.34;4963727;28;20507;-65
2021/07/31 02:02:30;;;;;;;5.40;4.05;;;19.60;75.30;;;18.70;72.98;95599.53;4963498;28;20082;-65
2021/07/31 02:04:56;;;;;;;4.55;3.75;;;19.60;75.30;;;18.76;73.09;95598.50;4970079;28;20062;-65
2021/07/31 02:07:22;;;;;;;4.63;3.78;;;19.70;75.00;;;18.76;71.77;95590.53;4937079;28;20164;-65
2021/07/31 02:09:48;;;;;;;4.68;3.70;;;19.60;75.20;;;18.75;73.13;95596.91;4955457;28;20043;-64
2021/07/31 02:12:14;;;;;;;6.78;3.70;;;19.60;75.40;;;18.76;71.98;95597.72;4967794;28;20408;-64
2021/07/31 02:14:40;;;;;;;4.18;3.60;;;19.60;75.10;;;18.75;72.75;95594.25;4962842;28;20035;-65
2021/07/31 02:17:05;;;;;;;4.63;3.90;;;19.60;75.40;;;18.74;72.92;95592.63;4921219;29;20039;-65
2021/07/31 02:19:31;;;;;;;4.57;3.53;;;19.60;75.50;;;18.76;72.32;95595.03;4943317;28;20109;-64
2021/07/31 02:21:58;;;;;;;8.15;3.75;;;19.70;75.40;;;18.76;72.25;95590.53;4960097;28;20042;-65
2021/07/31 02:24:24;;;;;;;5.85;3.72;;;19.60;75.30;;;18.76;72.79;95595.84;4946132;28;20167;-64
2021/07/31 02:26:50;;;;;;;3.83;3.20;;;19.70;75.20;;;18.78;73.30;95592.94;4943768;28;20043;-65
2021/07/31 02:29:16;;;;;;;7.55;4.03;;;19.70;75.20;;;18.74;73.15;95597.97;4956933;28;20087;-64
2021/07/31 02:31:42;;;;;;;4.45;3.47;;;19.50;75.80;;;18.72;73.19;95602.75;4967359;28;20055;-64
2021/07/31 02:34:08;;;;;;;4.50;3.60;;;19.50;75.90;;;18.66;73.16;95607.22;4935378;29;20086;-65
2021/07/31 02:36:33;;;;;;;5.13;3.83;;;19.40;76.40;;;18.64;73.33;95609.34;4965995;28;20047;-64
2021/07/31 02:38:59;;;;;;;4.93;3.83;;;19.40;76.50;;;18.58;74.01;95605.00;4934461;29;20086;-65
2021/07/31 02:41:25;;;;;;;7.57;3.92;;;19.40;76.70;;;18.56;73.10;95611.63;4951207;28;20047;-65
2021/07/31 02:43:51;;;;;;;5.30;3.78;;;19.40;76.90;;;18.58;73.44;95604.19;4949594;28;20525;-64
2021/07/31 02:46:16;;;;;;;7.85;4.03;;;19.50;76.70;;;18.58;73.16;95594.34;4954105;28;20547;-64
2021/07/31 02:48:42;;;;;;;5.82;3.67;;;19.50;76.50;;;18.60;73.99;95589.56;4960914;28;20027;-64
2021/07/31 02:51:12;;;;;;;6.13;4.00;;;19.60;76.40;;;18.63;74.41;95597.06;4948382;28;20043;-64
2021/07/31 02:53:38;;;;;;;4.18;3.78;;;19.60;76.30;;;18.58;73.49;95590.88;4954117;28;20035;-64
2021/07/31 02:56:05;;;;;;;5.82;3.80;;;19.40;76.80;;;18.55;74.12;95596.69;4953972;28;20119;-64
2021/07/31 02:58:30;;;;;;;4.60;3.88;;;19.40;76.90;;;18.52;74.48;95590.00;4944447;28;20043;-64
2021/07/31 03:00:56;;;;;;;5.47;3.55;;;19.40;77.10;;;18.55;74.25;95596.69;4955041;28;20414;-64
2021/07/31 03:03:22;;;;;;;6.28;3.83;;;19.50;77.10;;;18.53;73.92;95593.47;4951640;28;20499;-64
2021/07/31 03:05:55;;;;;;;4.55;3.88;;;19.40;77.20;;;18.52;74.75;95582.00;4958486;28;20042;-64
2021/07/31 03:08:21;;;;;;;4.93;3.90;;;19.50;77.00;;;18.52;74.18;95581.19;4961685;28;20039;-65
2021/07/31 03:10:52;;;;;;;5.03;3.83;;;19.40;77.00;;;18.47;74.74;95581.16;4956602;28;20463;-65
2021/07/31 03:13:17;;;;;;;5.25;3.92;;;19.50;77.20;;;18.51;74.21;95577.72;4957136;28;20570;-65
2021/07/31 03:15:43;;;;;;;5.13;3.80;;;19.40;77.10;;;18.48;74.87;95575.56;4961666;28;20059;-64
2021/07/31 03:18:09;;;;;;;7.05;4.07;;;19.40;77.20;;;18.48;75.13;95577.44;4951382;28;20031;-64
2021/07/31 03:20:34;;;;;;;5.15;4.07;;;19.40;77.40;;;18.47;74.93;95575.81;4962913;28;20149;-64
2021/07/31 03:23:00;;;;;;;5.20;4.32;;;19.40;77.60;;;18.45;75.67;95572.63;4959952;28;20070;-64
2021/07/31 03:25:26;;;;;;;4.60;3.90;;;19.40;77.90;;;18.44;74.38;95571.00;4949906;28;20035;-64
2021/07/31 03:27:52;;;;;;;4.18;3.78;;;19.40;77.80;;;18.43;74.64;95570.19;4952024;28;20039;-65
2021/07/31 03:30:17;;;;;;;5.97;4.25;;;19.40;77.60;;;18.42;75.42;95571.25;4957443;28;20415;-65
2021/07/31 03:32:43;;;;;;;5.00;3.97;;;19.40;77.60;;;18.40;75.15;95568.03;4952720;28;20522;-64
2021/07/31 03:35:09;;;;;;;5.82;4.20;;;19.40;77.70;;;18.38;75.67;95567.50;4956517;28;20066;-64
2021/07/31 03:37:35;;;;;;;5.22;3.83;;;19.30;77.90;;;18.34;74.91;95567.19;4963932;28;20058;-65
2021/07/31 03:40:02;;;;;;;4.82;3.90;;;19.30;78.20;;;18.34;75.39;95571.72;4960122;28;20031;-64
2021/07/31 03:42:27;;;;;;;5.25;3.63;;;19.30;78.20;;;18.34;76.27;95574.38;4972275;28;20046;-65
2021/07/31 03:44:53;;;;;;;4.88;4.38;;;19.40;78.00;;;18.32;75.25;95574.59;4964854;28;20039;-65
2021/07/31 03:47:19;;;;;;;5.93;4.68;;;19.30;78.00;;;18.32;76.29;95574.59;4957625;28;20070;-64
2021/07/31 03:49:45;;;;;;;5.80;4.95;;;19.40;77.90;;;18.28;76.21;95572.69;4960421;28;20032;-64
2021/07/31 03:52:10;;;;;;;5.07;4.57;;;19.30;78.00;;;18.26;76.17;95580.13;4965372;28;20383;-64
2021/07/31 03:54:37;;;;;;;5.70;4.22;;;19.20;78.30;;;18.23;76.59;95578.78;4939614;28;20542;-65
2021/07/31 03:57:03;;;;;;;6.65;4.75;;;19.20;78.50;;;18.23;76.17;95575.31;4933628;29;20131;-65
2021/07/31 03:59:29;;;;;;;5.70;4.22;;;19.20;78.70;;;18.20;76.01;95581.94;4943175;28;20039;-64
2021/07/31 04:01:56;;;;;;;6.57;4.32;;;19.20;78.50;;;18.23;76.51;95580.63;4954791;28;20134;-64
2021/07/31 04:04:21;;;;;;;4.80;4.30;;;19.30;78.70;;;18.25;76.29;95583.84;4966247;28;20045;-64
2021/07/31 04:06:47;;;;;;;9.02;4.10;;;19.30;78.40;;;18.25;76.97;95584.66;4970169;28;20043;-64
2021/07/31 04:09:13;;;;;;;5.03;4.10;;;19.30;78.60;;;18.23;75.98;95586.75;4958455;28;20106;-64
2021/07/31 04:11:39;;;;;;;5.32;4.28;;;19.20;78.60;;;18.23;76.82;95586.75;4953662;28;20408;-65
2021/07/31 04:14:04;;;;;;;4.93;4.18;;;19.30;78.50;;;18.20;76.24;95592.59;4956133;28;20518;-64
2021/07/31 04:16:30;;;;;;;5.63;3.95;;;19.10;78.80;;;18.18;76.68;95586.72;4944575;28;20070;-64
2021/07/31 04:18:56;;;;;;;6.03;4.00;;;19.20;78.80;;;18.21;77.17;95594.19;4960314;28;20051;-64
2021/07/31 04:21:21;;;;;;;5.80;4.45;;;19.30;78.70;;;18.23;76.77;95591.28;4956107;28;20106;-65
2021/07/31 04:23:47;;;;;;;5.18;4.13;;;19.30;78.70;;;18.24;77.12;95585.72;4952300;28;20645;-64
2021/07/31 04:26:15;;;;;;;6.70;4.18;;;19.30;78.70;;;18.25;76.34;95584.66;4929128;29;20062;-64
2021/07/31 04:28:41;;;;;;;5.38;4.22;;;19.30;78.80;;;18.26;77.22;95583.59;4958446;28;20037;-64
2021/07/31 04:31:08;;;;;;;5.25;4.03;;;19.30;78.70;;;18.26;76.80;95580.13;4937373;28;20024;-64
2021/07/31 04:33:34;;;;;;;5.15;3.92;;;19.20;78.90;;;18.25;76.68;95579.31;4932787;28;20043;-64
2021/07/31 04:36:02;;;;;;;5.90;4.10;;;19.20;78.90;;;18.24;77.08;95576.91;4961080;28;20054;-65
2021/07/31 04:38:29;;;;;;;6.18;3.97;;;19.20;79.00;;;18.22;76.65;95574.50;4948659;28;20043;-64
2021/07/31 04:40:54;;;;;;;4.20;3.80;;;19.20;78.90;;;18.22;77.46;95565.72;4966271;28;20031;-65
2021/07/31 04:43:20;;;;;;;4.93;4.40;;;19.10;79.00;;;18.19;76.88;95567.03;4956840;28;20035;-65
2021/07/31 04:45:46;;;;;;;11.23;8.13;;;19.20;79.00;;;18.19;77.39;95564.38;4965572;28;20044;-65
2021/07/31 04:48:12;;;;;;;7.55;5.40;;;19.20;78.90;;;18.16;76.57;95578.19;4955733;28;20034;-65
2021/07/31 04:50:37;;;;;;;5.22;4.57;;;19.10;79.30;;;18.15;76.94;95571.25;4960586;28;20447;-65
2021/07/31 04:53:03;;;;;;;6.28;4.50;;;19.10;79.20;;;18.14;77.70;95572.28;4951986;28;20686;-65
2021/07/31 04:55:29;;;;;;;5.60;4.43;;;19.10;79.10;;;18.14;76.57;95564.31;4963142;28;20085;-65
2021/07/31 04:57:54;;;;;;;5.95;4.05;;;19.20;79.10;;;18.18;76.81;95565.41;4967750;28;20213;-65
2021/07/31 05:00:20;;;;;;;6.07;4.32;;;19.20;79.00;;;18.19;77.39;95574.22;4959783;28;20039;-65
2021/07/31 05:02:46;;;;;;;5.47;4.22;;;19.30;79.20;;;18.25;76.91;95584.66;4949854;28;20105;-65
2021/07/31 05:05:12;;;;;;;4.75;3.92;;;19.40;78.60;;;18.30;76.65;95576.72;4958719;28;20027;-65
2021/07/31 05:07:37;;;;;;;7.38;4.80;;;19.50;78.60;;;18.36;77.78;95574.94;4925787;28;20073;-65
2021/07/31 05:10:04;;;;;;;5.47;3.97;;;19.60;78.30;;;18.44;76.62;95565.69;4937978;29;20031;-65
2021/07/31 05:12:29;;;;;;;5.57;4.18;;;19.60;78.20;;;18.49;76.93;95568.38;4951419;28;20043;-65
2021/07/31 05:14:55;;;;;;;5.68;3.95;;;19.80;78.00;;;18.55;76.18;95562.84;4965416;28;20113;-65
2021/07/31 05:17:21;;;;;;;6.03;4.78;;;19.80;77.50;;;18.60;77.11;95580.75;4954623;28;20069;-65
2021/07/31 05:19:47;;;;;;;7.82;4.90;;;19.90;77.10;;;18.66;77.47;95585.91;4967785;28;20526;-65
2021/07/31 05:22:16;;;;;;;6.78;4.57;;;19.90;77.40;;;18.71;76.84;95587.81;4940282;29;20032;-65
2021/07/31 05:24:42;;;;;;;5.13;4.05;;;19.90;77.30;;;18.73;77.11;95580.38;4933724;28;20038;-65
2021/07/31 05:27:08;;;;;;;6.53;4.43;;;20.00;77.20;;;18.75;75.78;95583.59;4967714;28;20065;-65
2021/07/31 05:29:34;;;;;;;5.72;4.18;;;19.90;76.80;;;18.79;76.87;95590.03;4960003;28;20050;-65
2021/07/31 05:32:00;;;;;;;9.75;7.88;;;20.00;76.80;;;18.82;76.29;95594.06;4936986;28;20070;-65
2021/07/31 05:34:26;;;;;;;10.65;8.63;;;20.00;76.70;;;18.89;75.80;95594.66;4937799;28;20046;-65
2021/07/31 05:36:51;;;;;;;8.98;5.00;;;20.10;76.10;;;18.94;76.30;95587.50;4955409;28;20035;-65
2021/07/31 05:39:17;;;;;;;6.05;4.35;;;20.20;76.00;;;19.04;75.63;95596.66;4952129;28;20118;-65
2021/07/31 05:41:43;;;;;;;5.57;4.13;;;20.40;75.70;;;19.12;74.72;95599.63;4964811;28;20041;-66
2021/07/31 05:44:08;;;;;;;6.00;3.80;;;20.50;74.90;;;19.20;75.04;95595.69;4962595;28;20039;-65
2021/07/31 05:46:34;;;;;;;5.30;4.55;;;20.60;74.50;;;19.33;75.66;95600.59;4937194;28;20039;-65
2021/07/31 05:49:00;;;;;;;5.00;3.80;;;20.80;74.00;;;19.47;74.79;95585.78;4952332;28;20059;-68
2021/07/31 05:51:26;;;;;;;4.80;4.22;;;20.90;73.90;;;19.57;74.04;95593.84;4924347;28;20054;-67
2021/07/31 05:53:51;;;;;;;16.58;12.32;;;21.00;73.60;;;19.73;73.75;95594.75;4952362;28;20023;-65
2021/07/31 05:56:17;;;;;;;24.73;5.68;;;21.20;72.40;;;19.79;73.76;95593.72;4932974;28;20418;-66
2021/07/31 05:58:43;;;;;;;5.05;3.92;;;21.10;72.20;;;19.83;72.77;95591.31;4950163;28;20517;-64
2021/07/31 06:01:09;;;;;;;11.85;6.32;;;21.10;71.20;;;19.87;72.38;95592.41;4918268;29;20031;-65
2021/07/31 06:03:35;;;;;;;4.88;4.13;;;21.10;71.20;;;19.94;71.94;95595.66;4934266;28;20031;-64
2021/07/31 06:06:00;;;;;;;5.63;4.70;;;21.30;70.50;;;19.97;71.75;95605.03;4930818;28;20094;-65
2021/07/31 06:08:26;;;;;;;6.13;5.03;;;21.30;70.60;;;20.03;71.35;95588.75;4952314;28;20043;-66
2021/07/31 06:11:03;;;;;;;6.72;5.85;;;21.40;70.20;;;20.15;71.15;95592.03;4932419;28;20035;-66
2021/07/31 06:13:29;;;;;;;6.18;4.50;;;21.70;69.40;;;20.30;70.97;95587.78;4949769;28;20091;-66
2021/07/31 06:15:55;;;;;;;5.30;3.95;;;22.00;68.60;;;20.44;71.00;95583.59;4949838;28;20087;-66
2021/07/31 06:18:21;;;;;;;6.45;4.55;;;22.30;68.50;;;20.64;70.71;95583.63;4934143;28;20616;-66
2021/07/31 06:20:46;;;;;;;6.00;4.45;;;22.60;67.30;;;20.82;70.48;95584.19;4952861;28;20026;-66
2021/07/31 06:23:12;;;;;;;8.68;7.60;;;22.60;67.10;;;20.95;69.75;95586.34;4950171;28;20040;-66
2021/07/31 06:25:38;;;;;;;6.72;5.22;;;22.70;66.40;;;21.07;69.82;95589.56;4951100;28;20062;-66
2021/07/31 06:28:04;;;;;;;4.82;3.67;;;22.70;66.80;;;21.14;69.06;95576.72;4950088;28;20035;-66
2021/07/31 06:30:29;;;;;;;8.60;4.80;;;22.60;65.90;;;21.20;68.79;95586.34;4961255;28;20039;-66
2021/07/31 06:32:55;;;;;;;7.43;3.92;;;22.70;66.50;;;21.26;68.12;95593.31;4955402;28;20507;-66
2021/07/31 06:35:21;;;;;;;6.70;4.50;;;22.80;65.30;;;21.28;68.12;95593.88;4942890;28;20074;-66
2021/07/31 06:37:47;;;;;;;5.45;4.30;;;22.80;65.60;;;21.34;67.75;95597.34;4948885;28;20085;-69
2021/07/31 06:40:12;;;;;;;10.57;7.82;;;23.00;64.80;;;21.36;67.72;95585.28;4967208;28;20503;-69
2021/07/31 06:42:38;;;;;;;5.20;4.50;;;23.10;64.90;;;21.46;67.21;95591.69;4934031;29;20090;-69
2021/07/31 06:45:04;;;;;;;5.32;3.88;;;23.10;64.00;;;21.56;67.07;95587.16;4966444;28;20054;-69
2021/07/31 06:47:30;;;;;;;4.72;3.60;;;23.50;63.50;;;21.69;66.93;95583.09;4916938;28;20031;-67
2021/07/31 06:49:56;;;;;;;6.28;4.45;;;23.60;62.90;;;21.82;66.69;95587.88;4948909;28;20066;-67
2021/07/31 06:52:22;;;;;;;6.25;4.30;;;23.70;62.80;;;21.94;66.70;95593.72;4966006;28;20066;-65
2021/07/31 06:54:47;;;;;;;4.90;3.90;;;23.80;62.50;;;22.00;66.03;95589.97;4931079;29;20070;-66
2021/07/31 06:57:13;;;;;;;4.65;3.83;;;23.60;62.50;;;22.06;65.60;95587.31;4922695;28;20077;-65
2021/07/31 06:59:39;;;;;;;5.03;4.13;;;23.90;62.00;;;22.12;65.86;95591.56;4939306;28;20526;-66
2021/07/31 07:02:05;;;;;;;5.00;3.95;;;23.90;62.20;;;22.15;65.34;95596.38;4949099;28;20134;-66
2021/07/31 07:04:30;;;;;;;4.90;3.95;;;23.70;62.40;;;22.20;64.88;95599.06;4945579;28;20543;-65
2021/07/31 07:06:56;;;;;;;5.78;3.92;;;23.80;61.80;;;22.21;65.03;95585.38;4956718;28;20047;-65
2021/07/31 07:09:22;;;;;;;6.72;3.75;;;23.60;62.10;;;22.17;64.73;95575.47;4948778;28;20122;-68
2021/07/31 07:11:48;;;;;;;8.88;6.88;;;23.50;61.90;;;22.14;65.07;95592.09;4939375;28;20035;-68
2021/07/31 07:14:14;;;;;;;6.50;4.75;;;23.60;62.20;;;22.10;63.94;95583.00;4973335;28;20062;-69
2021/07/31 07:16:39;;;;;;;4.80;4.15;;;23.80;60.90;;;22.13;64.45;95587.81;4946084;28;20059;-67
2021/07/31 07:19:05;;;;;;;8.90;4.18;;;24.10;60.00;;;22.29;64.11;95592.03;4954675;28;20063;-68
2021/07/31 07:21:31;;;;;;;10.27;5.43;;;24.60;59.00;;;22.40;64.02;95574.81;4953357;28;20063;-67
2021/07/31 07:23:57;;;;;;;7.22;4.78;;;24.60;58.40;;;22.49;63.67;95575.84;4952968;28;20031;-67
2021/07/31 07:26:23;;;;;;;7.22;3.85;;;24.40;57.80;;;22.57;62.41;95572.56;4953226;28;20517;-67
2021/07/31 07:28:48;;;;;;;5.90;3.78;;;24.50;57.70;;;22.65;62.39;95568.53;4944752;28;20031;-67
2021/07/31 07:31:14;;;;;;;7.35;3.58;;;24.50;58.60;;;22.69;62.59;95569.56;4972388;28;20031;-67
2021/07/31 07:33:40;;;;;;;7.68;5.22;;;24.20;57.40;;;22.72;61.82;95566.34;4940090;28;20077;-67
2021/07/31 07:36:17;;;;;;;5.95;4.22;;;24.50;57.70;;;22.68;60.51;95569.84;4956415;28;20106;-68
2021/07/31 07:38:44;;;;;;;8.73;5.22;;;24.10;58.30;;;22.65;61.75;95570.41;4956422;28;20031;-67
2021/07/31 07:41:10;;;;;;;10.55;6.80;;;24.00;59.30;;;22.58;61.58;95568.81;4955910;28;20045;-68
2021/07/31 07:43:36;;;;;;;9.85;5.93;;;24.10;59.00;;;22.67;62.16;95574.41;4963442;28;20045;-67
2021/07/31 07:46:03;;;;;;;27.35;10.68;;;24.80;58.20;;;22.87;61.76;95565.47;4948810;28;21620;-68
2021/07/31 07:48:28;;;;;;;7.05;4.30;;;25.40;56.60;;;23.08;61.70;95566.09;4952471;28;20134;-67
2021/07/31 07:50:54;;;;;;;6.13;3.92;;;25.40;55.30;;;23.21;61.21;95560.09;4936577;28;20103;-68
2021/07/31 07:53:20;;;;;;;6.97;5.57;;;25.30;56.00;;;23.32;61.48;95568.84;4936742;28;20126;-68
2021/07/31 07:55:46;;;;;;;7.88;4.70;;;25.30;57.00;;;23.35;60.77;95570.97;4936311;28;20036;-67
2021/07/31 07:58:12;;;;;;;7.45;4.00;;;25.00;56.60;;;23.32;60.88;95576.91;4939102;28;20118;-68
2021/07/31 08:00:38;;;;;;;5.45;3.60;;;24.90;56.40;;;23.31;60.32;95577.97;4966253;28;20036;-68
2021/07/31 08:03:05;;;;;;;10.98;7.32;;;24.90;56.80;;;23.33;60.69;95579.31;4970258;28;20486;-68
2021/07/31 08:05:30;;;;;;;12.65;6.75;;;25.00;56.80;;;23.34;60.49;95580.91;4952356;28;20031;-68
2021/07/31 08:07:56;;;;;;;8.43;4.57;;;24.90;57.30;;;23.34;60.17;95572.06;4955385;28;20078;-67
2021/07/31 08:10:22;;;;;;;8.90;4.78;;;24.90;56.00;;;23.30;59.83;95579.06;4955934;28;20090;-67
2021/07/31 08:12:48;;;;;;;7.43;5.03;;;24.80;56.50;;;23.37;59.48;95571.50;4934931;28;20460;-66
2021/07/31 08:15:13;;;;;;;5.32;3.38;;;25.30;56.50;;;23.45;59.91;95562.81;4950513;28;20413;-65
2021/07/31 08:17:39;;;;;;;4.15;3.20;;;25.60;54.60;;;23.63;58.52;95572.88;4948069;28;20034;-66
2021/07/31 08:20:06;;;;;;;6.72;3.53;;;25.70;53.40;;;23.75;58.89;95578.63;4954334;28;20030;-68
2021/07/31 08:22:32;;;;;;;5.57;3.30;;;25.90;53.40;;;23.86;58.30;95582.03;4942042;29;20078;-68
2021/07/31 08:24:58;;;;;;;4.97;3.75;;;25.80;53.10;;;24.01;57.92;95570.31;4936003;29;20043;-68
2021/07/31 08:27:24;;;;;;;7.95;5.32;;;26.10;51.70;;;24.18;56.93;95567.94;4967048;28;20039;-65
2021/07/31 08:29:50;;;;;;;6.80;4.75;;;26.20;51.30;;;24.39;56.80;95566.63;4968403;28;20067;-64
2021/07/31 08:32:16;;;;;;;10.05;5.50;;;26.50;50.40;;;24.56;56.40;95568.84;4957092;28;20039;-66
2021/07/31 08:34:41;;;;;;;4.55;3.70;;;26.70;50.20;;;24.71;55.17;95565.94;4951535;28;20031;-64
2021/07/31 08:37:08;;;;;;;3.83;2.95;;;26.70;48.80;;;24.89;55.07;95567.00;4955572;28;20039;-65
2021/07/31 08:39:36;;;;;;;5.22;2.45;;;27.10;47.90;;;25.14;54.39;95576.63;4953785;28;20134;-65
2021/07/31 08:42:02;;;;;;;3.95;2.50;;;27.40;47.70;;;25.28;53.76;95573.94;4920097;28;20411;-65
2021/07/31 08:44:27;;;;;;;5.90;2.70;;;27.50;46.40;;;25.39;53.56;95577.28;4946830;28;20130;-65
2021/07/31 08:46:53;;;;;;;5.10;2.75;;;27.50;46.90;;;25.45;52.84;95571.50;4967089;28;20047;-64
2021/07/31 08:49:19;;;;;;;4.40;2.50;;;27.20;45.40;;;25.37;52.47;95566.81;4950496;28;20455;-68
2021/07/31 08:51:46;;;;;;;4.15;2.85;;;27.00;46.90;;;25.44;52.24;95571.81;4935759;28;20066;-66
2021/07/31 08:54:11;;;;;;;3.60;2.65;;;27.30;46.30;;;25.44;51.44;95572.59;4951358;29;20035;-66
2021/07/31 08:56:44;;;;;;;5.68;3.80;;;27.10;45.60;;;25.39;50.68;95575.41;4967194;28;20034;-66
2021/07/31 08:59:10;;;;;;;6.32;3.45;;;27.00;47.40;;;25.24;51.74;95572.94;4947107;28;20050;-66
2021/07/31 09:01:35;;;;;;;3.60;2.40;;;26.60;47.30;;;25.16;51.64;95584.41;4943959;28;20039;-66
2021/07/31 09:04:15;;;;;;;5.05;3.13;;;26.70;47.90;;;25.24;50.81;95581.03;4952320;28;20039;-66
2021/07/31 09:06:40;;;;;;;10.32;8.35;;;27.10;47.60;;;25.30;52.08;95582.53;4951422;28;20043;-67
2021/07/31 09:09:06;;;;;;;5.75;2.80;;;27.20;47.10;;;25.30;51.58;95582.53;4966610;28;20031;-66
2021/07/31 09:11:32;;;;;;;4.57;2.60;;;26.90;46.20;;;25.15;50.93;95586.28;4958820;28;20097;-65
2021/07/31 09:14:12;;;;;;;6.57;4.38;;;26.40;46.30;;;25.06;49.88;95579.16;4952409;28;20046;-66
2021/07/31 09:16:38;;;;;;;7.93;5.47;;;26.50;47.90;;;24.93;51.13;95578.78;4951875;28;20085;-68
2021/07/31 09:19:09;;;;;;;6.05;4.15;;;26.50;47.30;;;24.90;50.53;95584.75;4934959;29;20574;-68
2021/07/31 09:21:35;;;;;;;7.15;4.78;;;26.50;47.80;;;24.92;51.35;95576.41;4932030;29;20036;-65
2021/07/31 09:24:00;;;;;;;4.18;2.63;;;26.60;47.80;;;24.96;51.00;95578.22;4947941;28;20039;-65
2021/07/31 09:26:37;;;;;;;6.72;2.50;;;26.70;46.80;;;24.94;49.78;95582.28;4938583;28;20053;-65
2021/07/31 09:29:03;;;;;;;6.10;3.47;;;26.40;46.90;;;24.87;50.78;95584.53;4952165;28;20043;-65
2021/07/31 09:31:30;;;;;;;4.45;2.70;;;26.30;47.70;;;24.82;50.06;95585.41;4953448;28;20550;-66
2021/07/31 09:33:59;;;;;;;5.70;2.30;;;26.10;47.00;;;24.80;50.49;95576.81;4953915;28;20066;-68
2021/07/31 09:36:41;;;;;;;6.07;2.53;;;26.40;47.30;;;24.94;49.70;95580.38;4937626;28;20130;-68
2021/07/31 09:39:09;;;;;;;5.53;2.60;;;26.60;46.20;;;25.07;50.49;95584.25;4935626;28;20039;-65
2021/07/31 09:41:36;;;;;;;7.47;4.45;;;27.00;46.80;;;25.26;50.24;95592.28;4941856;28;20043;-65
2021/07/31 09:44:03;;;;;;;4.57;3.65;;;27.20;46.40;;;25.36;49.91;95594.03;4954851;28;20039;-68
2021/07/31 09:46:51;;;;;;;5.32;2.75;;;27.00;46.10;;;25.37;48.38;95593.75;4955083;28;20117;-67
2021/07/31 09:49:21;;;;;;;5.93;4.47;;;27.00;46.20;;;25.38;49.87;95587.25;4922195;29;20027;-66
2021/07/31 09:51:48;;;;;;;5.60;3.17;;;27.10;46.80;;;25.42;50.15;95590.16;4932492;28;20423;-66
2021/07/31 09:54:16;;;;;;;5.10;3.42;;;27.10;46.40;;;25.40;49.94;95593.16;4954733;28;20050;-66
2021/07/31 09:56:51;;;;;;;4.43;2.20;;;27.00;46.70;;;25.36;48.95;95592.16;4916491;29;20039;-67
2021/07/31 09:59:19;;;;;;;7.00;2.28;;;26.80;46.60;;;25.28;49.49;95588.22;4951021;28;20043;-67
2021/07/31 10:01:50;;;;;;;5.60;2.40;;;26.60;45.80;;;25.22;48.43;95586.72;4960799;28;20039;-66
2021/07/31 10:04:16;;;;;;;5.28;3.35;;;26.70;46.50;;;25.19;49.52;95584.59;4934831;29;20023;-67
2021/07/31 10:06:42;;;;;;;5.35;3.42;;;26.60;46.60;;;25.19;49.98;95581.13;4944956;28;20035;-66
2021/07/31 10:09:08;;;;;;;6.43;2.40;;;26.90;47.30;;;25.20;49.71;95588.91;4924264;29;20113;-66
2021/07/31 10:11:44;;;;;;;4.63;2.60;;;26.60;46.90;;;25.21;48.03;95585.09;4949859;28;20090;-66
2021/07/31 10:14:10;;;;;;;4.45;2.10;;;27.00;44.80;;;25.36;49.17;95584.06;4961344;28;20519;-66